sensor_id;sensor_type;location;lat;lon;timestamp;temperature;humidity
46085;DHT22;31823;47.032;8.310;2023-09-08T00:02:09;19.30;99.90
46085;DHT22;31823;47.032;8.310;2023-09-08T00:04:35;19.30;99.90
46085;DHT22;31823;47.032;8.310;2023-09-08T00:07:01;19.30;99.90
46085;DHT22;31823;47.032;8.310;2023-09-08T00:09:27;19.30;99.90
46085;DHT22;31823;47.032;8.310;2023-09-08T00:11:52;19.30;99.90
46085;DHT22;31823;47.032;8.310;2023-09-08T00:14:19;19.20;99.90
46085;DHT22;31823;47.032;8.310;2023-09-08T00:16:45;19.20;99.90
46085;DHT22;31823;47.032;8.310;2023-09-08T00:19:11;19.20;99.90
46085;DHT22;31823;47.032;8.310;2023-09-08T00:21:36;19.10;99.90
46085;DHT22;31823;47.032;8.310;2023-09-08T00:24:02;19.10;99.90
46085;DHT22;31823;47.032;8.310;2023-09-08T00:26:29;19.20;99.90
46085;DHT22;31823;47.032;8.310;2023-09-08T00:28:54;19.20;99.90
46085;DHT22;31823;47.032;8.310;2023-09-08T00:31:20;19.10;99.90
46085;DHT22;31823;47.032;8.310;2023-09-08T00:33:46;19.10;99.90
46085;DHT22;31823;47.032;8.310;2023-09-08T00:36:11;19.10;99.90
46085;DHT22;31823;47.032;8.310;2023-09-08T00:38:37;19.10;99.90
46085;DHT22;31823;47.032;8.310;2023-09-08T00:41:04;19.00;99.90
46085;DHT22;31823;47.032;8.310;2023-09-08T00:43:30;19.00;99.90
46085;DHT22;31823;47.032;8.310;2023-09-08T00:45:56;19.00;99.90
46085;DHT22;31823;47.032;8.310;2023-09-08T00:48:24;18.90;99.90
46085;DHT22;31823;47.032;8.310;2023-09-08T00:50:50;18.90;99.90
46085;DHT22;31823;47.032;8.310;2023-09-08T00:53:15;18.90;99.90
46085;DHT22;31823;47.032;8.310;2023-09-08T00:55:41;18.90;99.90
46085;DHT22;31823;47.032;8.310;2023-09-08T00:58:07;18.90;99.90
46085;DHT22;31823;47.032;8.310;2023-09-08T01:00:32;18.90;99.90
46085;DHT22;31823;47.032;8.310;2023-09-08T01:02:58;18.90;99.90
46085;DHT22;31823;47.032;8.310;2023-09-08T01:05:24;18.90;99.90
46085;DHT22;31823;47.032;8.310;2023-09-08T01:07:51;18.90;99.90
46085;DHT22;31823;47.032;8.310;2023-09-08T01:10:17;18.90;99.90
46085;DHT22;31823;47.032;8.310;2023-09-08T01:12:43;18.90;99.90
46085;DHT22;31823;47.032;8.310;2023-09-08T01:15:09;18.90;99.90
46085;DHT22;31823;47.032;8.310;2023-09-08T01:17:35;18.80;99.90
46085;DHT22;31823;47.032;8.310;2023-09-08T01:25:25;18.70;99.90
46085;DHT22;31823;47.032;8.310;2023-09-08T01:27:52;18.80;99.90
46085;DHT22;31823;47.032;8.310;2023-09-08T01:30:19;18.70;99.90
46085;DHT22;31823;47.032;8.310;2023-09-08T01:32:46;18.70;99.90
46085;DHT22;31823;47.032;8.310;2023-09-08T01:35:13;18.70;99.90
46085;DHT22;31823;47.032;8.310;2023-09-08T01:37:46;18.70;99.90
46085;DHT22;31823;47.032;8.310;2023-09-08T01:40:12;18.70;99.90
46085;DHT22;31823;47.032;8.310;2023-09-08T01:42:38;18.60;99.90
46085;DHT22;31823;47.032;8.310;2023-09-08T01:45:04;18.70;99.90
46085;DHT22;31823;47.032;8.310;2023-09-08T01:47:30;18.60;99.90
46085;DHT22;31823;47.032;8.310;2023-09-08T01:49:56;18.60;99.90
46085;DHT22;31823;47.032;8.310;2023-09-08T01:52:22;18.50;99.90
46085;DHT22;31823;47.032;8.310;2023-09-08T01:54:47;18.50;99.90
46085;DHT22;31823;47.032;8.310;2023-09-08T01:57:13;18.50;99.90
46085;DHT22;31823;47.032;8.310;2023-09-08T01:59:38;18.50;99.90
46085;DHT22;31823;47.032;8.310;2023-09-08T02:02:04;18.50;99.90
46085;DHT22;31823;47.032;8.310;2023-09-08T02:04:30;18.50;99.90
46085;DHT22;31823;47.032;8.310;2023-09-08T02:06:55;18.50;99.90
46085;DHT22;31823;47.032;8.310;2023-09-08T02:09:21;18.50;99.90
46085;DHT22;31823;47.032;8.310;2023-09-08T02:11:47;18.40;99.90
46085;DHT22;31823;47.032;8.310;2023-09-08T02:14:12;18.40;99.90
46085;DHT22;31823;47.032;8.310;2023-09-08T02:16:38;18.40;99.90
46085;DHT22;31823;47.032;8.310;2023-09-08T02:19:05;18.40;99.90
46085;DHT22;31823;47.032;8.310;2023-09-08T02:21:30;18.40;99.90
46085;DHT22;31823;47.032;8.310;2023-09-08T02:23:56;18.40;99.90
46085;DHT22;31823;47.032;8.310;2023-09-08T02:26:21;18.40;99.90
46085;DHT22;31823;47.032;8.310;2023-09-08T02:28:47;18.40;99.90
46085;DHT22;31823;47.032;8.310;2023-09-08T02:31:12;18.40;99.90
46085;DHT22;31823;47.032;8.310;2023-09-08T02:33:38;18.40;99.90
46085;DHT22;31823;47.032;8.310;2023-09-08T02:36:05;18.40;99.90
46085;DHT22;31823;47.032;8.310;2023-09-08T02:38:33;18.40;99.90
46085;DHT22;31823;47.032;8.310;2023-09-08T02:40:59;18.30;99.90
46085;DHT22;31823;47.032;8.310;2023-09-08T02:43:24;18.30;99.90
46085;DHT22;31823;47.032;8.310;2023-09-08T02:45:50;18.40;99.90
46085;DHT22;31823;47.032;8.310;2023-09-08T02:48:15;18.20;99.90
46085;DHT22;31823;47.032;8.310;2023-09-08T02:50:43;18.20;99.90
46085;DHT22;31823;47.032;8.310;2023-09-08T02:53:08;18.20;99.90
46085;DHT22;31823;47.032;8.310;2023-09-08T02:55:34;18.20;99.90
46085;DHT22;31823;47.032;8.310;2023-09-08T02:57:59;18.30;99.90
46085;DHT22;31823;47.032;8.310;2023-09-08T03:00:25;18.20;99.90
46085;DHT22;31823;47.032;8.310;2023-09-08T03:02:51;18.20;99.90
46085;DHT22;31823;47.032;8.310;2023-09-08T03:05:16;18.20;99.90
46085;DHT22;31823;47.032;8.310;2023-09-08T03:07:42;18.10;99.90
46085;DHT22;31823;47.032;8.310;2023-09-08T03:10:07;18.20;99.90
46085;DHT22;31823;47.032;8.310;2023-09-08T03:12:34;18.20;99.90
46085;DHT22;31823;47.032;8.310;2023-09-08T03:15:01;18.20;99.90
46085;DHT22;31823;47.032;8.310;2023-09-08T03:17:27;18.20;99.90
46085;DHT22;31823;47.032;8.310;2023-09-08T03:19:53;18.20;99.90
46085;DHT22;31823;47.032;8.310;2023-09-08T03:22:18;18.10;99.90
46085;DHT22;31823;47.032;8.310;2023-09-08T03:24:44;18.10;99.90
46085;DHT22;31823;47.032;8.310;2023-09-08T03:27:09;18.10;99.90
46085;DHT22;31823;47.032;8.310;2023-09-08T03:29:35;18.10;99.90
46085;DHT22;31823;47.032;8.310;2023-09-08T03:32:00;18.10;99.90
46085;DHT22;31823;47.032;8.310;2023-09-08T03:34:26;18.10;99.90
46085;DHT22;31823;47.032;8.310;2023-09-08T03:36:54;18.20;99.90
46085;DHT22;31823;47.032;8.310;2023-09-08T03:39:20;18.10;99.90
46085;DHT22;31823;47.032;8.310;2023-09-08T03:41:45;18.20;99.90
46085;DHT22;31823;47.032;8.310;2023-09-08T03:44:11;18.10;99.90
46085;DHT22;31823;47.032;8.310;2023-09-08T03:46:37;18.10;99.90
46085;DHT22;31823;47.032;8.310;2023-09-08T03:49:02;18.10;99.90
46085;DHT22;31823;47.032;8.310;2023-09-08T03:51:28;18.10;99.90
46085;DHT22;31823;47.032;8.310;2023-09-08T03:53:54;18.10;99.90
46085;DHT22;31823;47.032;8.310;2023-09-08T03:56:19;18.10;99.90
46085;DHT22;31823;47.032;8.310;2023-09-08T03:58:48;18.00;99.90
46085;DHT22;31823;47.032;8.310;2023-09-08T04:01:14;18.00;99.90
46085;DHT22;31823;47.032;8.310;2023-09-08T04:03:40;18.10;99.90
46085;DHT22;31823;47.032;8.310;2023-09-08T04:06:05;18.10;99.90
46085;DHT22;31823;47.032;8.310;2023-09-08T04:08:31;18.10;99.90
46085;DHT22;31823;47.032;8.310;2023-09-08T04:10:56;18.10;99.90
46085;DHT22;31823;47.032;8.310;2023-09-08T04:13:22;18.00;99.90
46085;DHT22;31823;47.032;8.310;2023-09-08T04:15:47;18.00;99.90
46085;DHT22;31823;47.032;8.310;2023-09-08T04:18:13;18.00;99.90
46085;DHT22;31823;47.032;8.310;2023-09-08T04:20:39;18.00;99.90
46085;DHT22;31823;47.032;8.310;2023-09-08T04:23:05;17.90;99.90
46085;DHT22;31823;47.032;8.310;2023-09-08T04:25:30;18.00;99.90
46085;DHT22;31823;47.032;8.310;2023-09-08T04:27:56;18.00;99.90
46085;DHT22;31823;47.032;8.310;2023-09-08T04:30:22;18.00;99.90
46085;DHT22;31823;47.032;8.310;2023-09-08T04:32:47;18.00;99.90
46085;DHT22;31823;47.032;8.310;2023-09-08T04:35:13;18.00;99.90
46085;DHT22;31823;47.032;8.310;2023-09-08T04:37:38;17.90;99.90
46085;DHT22;31823;47.032;8.310;2023-09-08T04:40:05;17.90;99.90
46085;DHT22;31823;47.032;8.310;2023-09-08T04:42:31;17.90;99.90
46085;DHT22;31823;47.032;8.310;2023-09-08T04:44:56;17.90;99.90
46085;DHT22;31823;47.032;8.310;2023-09-08T04:47:22;17.90;99.90
46085;DHT22;31823;47.032;8.310;2023-09-08T04:49:48;17.80;99.90
46085;DHT22;31823;47.032;8.310;2023-09-08T04:52:13;17.80;99.90
46085;DHT22;31823;47.032;8.310;2023-09-08T04:54:40;17.80;99.90
46085;DHT22;31823;47.032;8.310;2023-09-08T04:57:05;17.80;99.90
46085;DHT22;31823;47.032;8.310;2023-09-08T04:59:31;17.80;99.90
46085;DHT22;31823;47.032;8.310;2023-09-08T05:01:58;17.90;99.90
46085;DHT22;31823;47.032;8.310;2023-09-08T05:04:23;17.90;99.90
46085;DHT22;31823;47.032;8.310;2023-09-08T05:06:49;17.90;99.90
46085;DHT22;31823;47.032;8.310;2023-09-08T05:09:14;17.90;99.90
46085;DHT22;31823;47.032;8.310;2023-09-08T05:11:40;18.00;99.90
46085;DHT22;31823;47.032;8.310;2023-09-08T05:14:06;18.00;99.90
46085;DHT22;31823;47.032;8.310;2023-09-08T05:16:31;17.90;99.90
46085;DHT22;31823;47.032;8.310;2023-09-08T05:19:10;17.90;99.90
46085;DHT22;31823;47.032;8.310;2023-09-08T05:21:36;17.90;99.90
46085;DHT22;31823;47.032;8.310;2023-09-08T05:24:02;17.90;99.90
46085;DHT22;31823;47.032;8.310;2023-09-08T05:26:28;17.90;99.90
46085;DHT22;31823;47.032;8.310;2023-09-08T05:28:54;17.80;99.90
46085;DHT22;31823;47.032;8.310;2023-09-08T05:31:19;17.90;99.90
46085;DHT22;31823;47.032;8.310;2023-09-08T05:33:45;17.90;99.90
46085;DHT22;31823;47.032;8.310;2023-09-08T05:36:11;17.90;99.90
46085;DHT22;31823;47.032;8.310;2023-09-08T05:38:36;17.90;99.90
46085;DHT22;31823;47.032;8.310;2023-09-08T05:41:02;17.90;99.90
46085;DHT22;31823;47.032;8.310;2023-09-08T05:43:28;18.00;99.90
46085;DHT22;31823;47.032;8.310;2023-09-08T05:45:53;18.00;99.90
46085;DHT22;31823;47.032;8.310;2023-09-08T05:48:19;18.00;99.90
46085;DHT22;31823;47.032;8.310;2023-09-08T05:50:45;18.00;99.90
46085;DHT22;31823;47.032;8.310;2023-09-08T05:53:10;18.00;99.90
46085;DHT22;31823;47.032;8.310;2023-09-08T05:55:36;18.00;99.90
46085;DHT22;31823;47.032;8.310;2023-09-08T05:58:01;18.10;99.90
46085;DHT22;31823;47.032;8.310;2023-09-08T06:00:27;18.10;99.90
46085;DHT22;31823;47.032;8.310;2023-09-08T06:02:53;18.20;99.90
46085;DHT22;31823;47.032;8.310;2023-09-08T06:05:19;18.20;99.90
46085;DHT22;31823;47.032;8.310;2023-09-08T06:07:44;18.20;99.90
46085;DHT22;31823;47.032;8.310;2023-09-08T06:10:10;18.30;99.90
46085;DHT22;31823;47.032;8.310;2023-09-08T06:12:35;18.30;99.90
46085;DHT22;31823;47.032;8.310;2023-09-08T06:15:04;18.40;99.90
46085;DHT22;31823;47.032;8.310;2023-09-08T06:17:30;18.40;99.90
46085;DHT22;31823;47.032;8.310;2023-09-08T06:19:56;18.50;99.90
46085;DHT22;31823;47.032;8.310;2023-09-08T06:22:22;18.50;99.90
46085;DHT22;31823;47.032;8.310;2023-09-08T06:24:47;18.50;99.90
46085;DHT22;31823;47.032;8.310;2023-09-08T06:27:14;18.50;99.90
46085;DHT22;31823;47.032;8.310;2023-09-08T06:29:40;18.60;99.90
46085;DHT22;31823;47.032;8.310;2023-09-08T06:32:08;18.60;99.90
46085;DHT22;31823;47.032;8.310;2023-09-08T06:34:34;18.60;99.90
46085;DHT22;31823;47.032;8.310;2023-09-08T06:37:01;18.70;99.90
46085;DHT22;31823;47.032;8.310;2023-09-08T06:39:26;18.80;99.90
46085;DHT22;31823;47.032;8.310;2023-09-08T06:41:52;18.80;99.90
46085;DHT22;31823;47.032;8.310;2023-09-08T06:44:20;18.90;99.90
46085;DHT22;31823;47.032;8.310;2023-09-08T06:46:45;19.00;99.90
46085;DHT22;31823;47.032;8.310;2023-09-08T06:49:11;19.00;99.90
46085;DHT22;31823;47.032;8.310;2023-09-08T06:51:37;19.10;99.90
46085;DHT22;31823;47.032;8.310;2023-09-08T06:54:04;19.20;99.90
46085;DHT22;31823;47.032;8.310;2023-09-08T06:56:29;19.30;99.90
46085;DHT22;31823;47.032;8.310;2023-09-08T06:58:55;19.50;99.90
46085;DHT22;31823;47.032;8.310;2023-09-08T07:01:23;19.80;99.90
46085;DHT22;31823;47.032;8.310;2023-09-08T07:03:49;19.90;99.90
46085;DHT22;31823;47.032;8.310;2023-09-08T07:06:15;20.00;99.90
46085;DHT22;31823;47.032;8.310;2023-09-08T07:08:40;19.70;99.90
46085;DHT22;31823;47.032;8.310;2023-09-08T07:11:06;19.60;99.90
46085;DHT22;31823;47.032;8.310;2023-09-08T07:13:31;19.50;99.90
46085;DHT22;31823;47.032;8.310;2023-09-08T07:15:57;19.40;99.90
46085;DHT22;31823;47.032;8.310;2023-09-08T07:18:23;19.50;99.90
46085;DHT22;31823;47.032;8.310;2023-09-08T07:20:48;20.00;99.90
46085;DHT22;31823;47.032;8.310;2023-09-08T07:23:16;20.30;99.90
46085;DHT22;31823;47.032;8.310;2023-09-08T07:25:47;20.50;99.90
46085;DHT22;31823;47.032;8.310;2023-09-08T07:28:14;20.60;99.90
46085;DHT22;31823;47.032;8.310;2023-09-08T07:30:39;20.80;99.90
46085;DHT22;31823;47.032;8.310;2023-09-08T07:33:05;21.00;99.90
46085;DHT22;31823;47.032;8.310;2023-09-08T07:35:31;21.20;99.90
46085;DHT22;31823;47.032;8.310;2023-09-08T07:37:57;21.40;99.90
46085;DHT22;31823;47.032;8.310;2023-09-08T07:40:22;21.70;99.90
46085;DHT22;31823;47.032;8.310;2023-09-08T07:42:48;21.70;99.90
46085;DHT22;31823;47.032;8.310;2023-09-08T07:45:13;22.00;99.90
46085;DHT22;31823;47.032;8.310;2023-09-08T07:47:39;22.50;99.90
46085;DHT22;31823;47.032;8.310;2023-09-08T07:52:47;22.90;99.90
46085;DHT22;31823;47.032;8.310;2023-09-08T07:55:13;23.30;99.90
46085;DHT22;31823;47.032;8.310;2023-09-08T07:57:38;23.00;99.90
46085;DHT22;31823;47.032;8.310;2023-09-08T08:00:04;22.80;99.90
46085;DHT22;31823;47.032;8.310;2023-09-08T08:02:30;23.10;99.90
46085;DHT22;31823;47.032;8.310;2023-09-08T08:04:56;23.10;99.90
46085;DHT22;31823;47.032;8.310;2023-09-08T08:07:22;23.30;99.90
46085;DHT22;31823;47.032;8.310;2023-09-08T08:09:48;23.90;99.90
46085;DHT22;31823;47.032;8.310;2023-09-08T08:12:13;24.20;99.90
46085;DHT22;31823;47.032;8.310;2023-09-08T08:14:39;24.60;99.90
46085;DHT22;31823;47.032;8.310;2023-09-08T08:17:05;24.10;99.90
46085;DHT22;31823;47.032;8.310;2023-09-08T08:19:30;23.90;99.90
46085;DHT22;31823;47.032;8.310;2023-09-08T08:21:56;23.90;99.90
46085;DHT22;31823;47.032;8.310;2023-09-08T08:24:23;24.50;99.90
46085;DHT22;31823;47.032;8.310;2023-09-08T08:26:48;24.20;99.90
46085;DHT22;31823;47.032;8.310;2023-09-08T08:29:19;24.20;99.90
46085;DHT22;31823;47.032;8.310;2023-09-08T08:31:44;24.10;99.90
46085;DHT22;31823;47.032;8.310;2023-09-08T08:34:10;24.50;99.90
46085;DHT22;31823;47.032;8.310;2023-09-08T08:36:35;24.00;99.90
46085;DHT22;31823;47.032;8.310;2023-09-08T08:39:01;24.00;99.90
46085;DHT22;31823;47.032;8.310;2023-09-08T08:41:28;23.70;99.90
46085;DHT22;31823;47.032;8.310;2023-09-08T08:43:55;24.00;99.90
46085;DHT22;31823;47.032;8.310;2023-09-08T08:46:22;23.60;99.90
46085;DHT22;31823;47.032;8.310;2023-09-08T08:48:48;23.80;99.90
46085;DHT22;31823;47.032;8.310;2023-09-08T08:51:17;23.90;99.90
46085;DHT22;31823;47.032;8.310;2023-09-08T08:53:43;23.90;99.90
46085;DHT22;31823;47.032;8.310;2023-09-08T08:56:10;23.90;99.90
46085;DHT22;31823;47.032;8.310;2023-09-08T08:58:37;23.70;99.90
46085;DHT22;31823;47.032;8.310;2023-09-08T09:01:05;23.70;99.90
46085;DHT22;31823;47.032;8.310;2023-09-08T09:03:31;23.70;99.90
46085;DHT22;31823;47.032;8.310;2023-09-08T09:05:58;23.50;99.90
46085;DHT22;31823;47.032;8.310;2023-09-08T09:08:24;23.40;99.90
46085;DHT22;31823;47.032;8.310;2023-09-08T09:10:51;23.30;99.90
46085;DHT22;31823;47.032;8.310;2023-09-08T09:13:17;23.60;99.90
46085;DHT22;31823;47.032;8.310;2023-09-08T09:15:43;23.70;99.90
46085;DHT22;31823;47.032;8.310;2023-09-08T09:18:10;23.80;99.90
46085;DHT22;31823;47.032;8.310;2023-09-08T09:20:36;23.80;99.90
46085;DHT22;31823;47.032;8.310;2023-09-08T09:23:01;23.90;99.90
46085;DHT22;31823;47.032;8.310;2023-09-08T09:25:30;23.50;99.90
46085;DHT22;31823;47.032;8.310;2023-09-08T09:28:00;23.50;99.90
46085;DHT22;31823;47.032;8.310;2023-09-08T09:30:27;23.70;99.90
46085;DHT22;31823;47.032;8.310;2023-09-08T09:33:03;23.90;99.90
46085;DHT22;31823;47.032;8.310;2023-09-08T09:35:46;24.10;99.90
46085;DHT22;31823;47.032;8.310;2023-09-08T09:38:12;24.10;99.90
46085;DHT22;31823;47.032;8.310;2023-09-08T09:40:38;24.30;99.90
46085;DHT22;31823;47.032;8.310;2023-09-08T09:43:07;24.20;99.90
46085;DHT22;31823;47.032;8.310;2023-09-08T09:45:34;23.90;99.90
46085;DHT22;31823;47.032;8.310;2023-09-08T09:47:59;24.20;99.90
46085;DHT22;31823;47.032;8.310;2023-09-08T09:50:29;24.50;99.90
46085;DHT22;31823;47.032;8.310;2023-09-08T09:53:00;24.40;99.90
46085;DHT22;31823;47.032;8.310;2023-09-08T09:55:27;24.40;99.90
46085;DHT22;31823;47.032;8.310;2023-09-08T09:57:57;24.40;99.90
46085;DHT22;31823;47.032;8.310;2023-09-08T10:00:29;24.70;99.90
46085;DHT22;31823;47.032;8.310;2023-09-08T10:02:55;25.20;99.90
46085;DHT22;31823;47.032;8.310;2023-09-08T10:05:21;25.10;99.90
46085;DHT22;31823;47.032;8.310;2023-09-08T10:07:50;24.90;99.90
46085;DHT22;31823;47.032;8.310;2023-09-08T10:10:17;25.30;99.90
46085;DHT22;31823;47.032;8.310;2023-09-08T10:12:44;25.90;99.90
46085;DHT22;31823;47.032;8.310;2023-09-08T10:15:18;26.40;99.90
46085;DHT22;31823;47.032;8.310;2023-09-08T10:17:45;26.60;99.90
46085;DHT22;31823;47.032;8.310;2023-09-08T10:20:12;27.00;99.90
46085;DHT22;31823;47.032;8.310;2023-09-08T10:22:41;26.90;99.90
46085;DHT22;31823;47.032;8.310;2023-09-08T10:25:09;27.40;99.90
46085;DHT22;31823;47.032;8.310;2023-09-08T10:27:35;27.70;99.90
46085;DHT22;31823;47.032;8.310;2023-09-08T10:30:04;27.60;99.90
46085;DHT22;31823;47.032;8.310;2023-09-08T10:32:35;27.60;99.90
46085;DHT22;31823;47.032;8.310;2023-09-08T10:35:04;28.10;99.90
46085;DHT22;31823;47.032;8.310;2023-09-08T10:37:30;28.10;99.90
46085;DHT22;31823;47.032;8.310;2023-09-08T10:42:45;28.20;99.90
46085;DHT22;31823;47.032;8.310;2023-09-08T10:45:18;28.50;99.90
46085;DHT22;31823;47.032;8.310;2023-09-08T10:50:19;28.70;99.90
46085;DHT22;31823;47.032;8.310;2023-09-08T10:52:45;28.60;99.90
46085;DHT22;31823;47.032;8.310;2023-09-08T10:55:36;28.50;99.90
46085;DHT22;31823;47.032;8.310;2023-09-08T10:58:03;28.90;99.90
46085;DHT22;31823;47.032;8.310;2023-09-08T11:00:43;28.60;99.90
46085;DHT22;31823;47.032;8.310;2023-09-08T11:03:09;28.80;99.90
46085;DHT22;31823;47.032;8.310;2023-09-08T11:05:34;28.80;99.90
46085;DHT22;31823;47.032;8.310;2023-09-08T11:08:01;28.40;99.90
46085;DHT22;31823;47.032;8.310;2023-09-08T11:10:27;28.20;99.90
46085;DHT22;31823;47.032;8.310;2023-09-08T11:12:54;28.20;99.90
46085;DHT22;31823;47.032;8.310;2023-09-08T11:15:20;28.20;99.90
46085;DHT22;31823;47.032;8.310;2023-09-08T11:17:45;28.20;99.90
46085;DHT22;31823;47.032;8.310;2023-09-08T11:20:16;28.20;99.90
46085;DHT22;31823;47.032;8.310;2023-09-08T11:22:43;27.90;99.90
46085;DHT22;31823;47.032;8.310;2023-09-08T11:25:10;27.90;99.90
46085;DHT22;31823;47.032;8.310;2023-09-08T11:27:37;27.90;99.90
46085;DHT22;31823;47.032;8.310;2023-09-08T11:30:06;27.80;99.90
46085;DHT22;31823;47.032;8.310;2023-09-08T11:32:35;27.80;99.90
46085;DHT22;31823;47.032;8.310;2023-09-08T11:35:08;27.60;99.90
46085;DHT22;31823;47.032;8.310;2023-09-08T11:37:40;27.70;99.90
46085;DHT22;31823;47.032;8.310;2023-09-08T11:40:07;27.60;99.90
46085;DHT22;31823;47.032;8.310;2023-09-08T11:42:41;27.80;99.90
46085;DHT22;31823;47.032;8.310;2023-09-08T11:45:13;27.80;99.90
46085;DHT22;31823;47.032;8.310;2023-09-08T11:47:43;27.80;99.90
46085;DHT22;31823;47.032;8.310;2023-09-08T11:50:10;27.80;99.90
46085;DHT22;31823;47.032;8.310;2023-09-08T11:52:59;27.80;99.90
46085;DHT22;31823;47.032;8.310;2023-09-08T11:55:25;27.80;99.90
46085;DHT22;31823;47.032;8.310;2023-09-08T11:57:55;27.80;99.90
46085;DHT22;31823;47.032;8.310;2023-09-08T12:00:25;27.90;99.90
46085;DHT22;31823;47.032;8.310;2023-09-08T12:02:52;27.90;99.90
46085;DHT22;31823;47.032;8.310;2023-09-08T12:05:25;27.90;99.90
46085;DHT22;31823;47.032;8.310;2023-09-08T12:07:52;27.80;99.90
46085;DHT22;31823;47.032;8.310;2023-09-08T12:10:19;27.90;99.90
46085;DHT22;31823;47.032;8.310;2023-09-08T12:12:46;27.90;99.90
46085;DHT22;31823;47.032;8.310;2023-09-08T12:15:26;28.10;99.90
46085;DHT22;31823;47.032;8.310;2023-09-08T12:17:54;28.10;99.90
46085;DHT22;31823;47.032;8.310;2023-09-08T12:20:20;28.20;99.90
46085;DHT22;31823;47.032;8.310;2023-09-08T12:22:49;28.60;99.90
46085;DHT22;31823;47.032;8.310;2023-09-08T12:25:18;28.90;99.90
46085;DHT22;31823;47.032;8.310;2023-09-08T12:27:45;28.90;99.90
46085;DHT22;31823;47.032;8.310;2023-09-08T12:30:22;28.90;99.90
46085;DHT22;31823;47.032;8.310;2023-09-08T12:32:50;29.00;99.90
46085;DHT22;31823;47.032;8.310;2023-09-08T12:35:20;29.20;99.90
46085;DHT22;31823;47.032;8.310;2023-09-08T12:38:07;29.50;99.90
46085;DHT22;31823;47.032;8.310;2023-09-08T12:40:35;28.90;99.90
46085;DHT22;31823;47.032;8.310;2023-09-08T12:43:02;29.10;99.90
46085;DHT22;31823;47.032;8.310;2023-09-08T12:45:29;29.30;99.90
46085;DHT22;31823;47.032;8.310;2023-09-08T12:47:59;29.40;99.90
46085;DHT22;31823;47.032;8.310;2023-09-08T12:50:25;28.90;99.90
46085;DHT22;31823;47.032;8.310;2023-09-08T12:52:51;29.00;99.90
46085;DHT22;31823;47.032;8.310;2023-09-08T12:55:17;29.00;99.90
46085;DHT22;31823;47.032;8.310;2023-09-08T12:57:42;29.40;99.90
46085;DHT22;31823;47.032;8.310;2023-09-08T13:00:08;29.60;99.90
46085;DHT22;31823;47.032;8.310;2023-09-08T13:02:34;29.90;99.90
46085;DHT22;31823;47.032;8.310;2023-09-08T13:05:00;30.00;99.90
46085;DHT22;31823;47.032;8.310;2023-09-08T13:07:26;30.20;99.90
46085;DHT22;31823;47.032;8.310;2023-09-08T13:09:52;30.60;99.90
46085;DHT22;31823;47.032;8.310;2023-09-08T13:12:18;30.60;98.80
46085;DHT22;31823;47.032;8.310;2023-09-08T13:14:43;30.70;99.90
46085;DHT22;31823;47.032;8.310;2023-09-08T13:17:12;30.90;99.00
46085;DHT22;31823;47.032;8.310;2023-09-08T13:19:38;30.30;99.00
46085;DHT22;31823;47.032;8.310;2023-09-08T13:22:04;30.40;99.10
46085;DHT22;31823;47.032;8.310;2023-09-08T13:24:30;30.30;99.30
46085;DHT22;31823;47.032;8.310;2023-09-08T13:26:56;29.70;99.90
46085;DHT22;31823;47.032;8.310;2023-09-08T13:29:21;29.70;99.90
46085;DHT22;31823;47.032;8.310;2023-09-08T13:31:47;30.10;99.90
46085;DHT22;31823;47.032;8.310;2023-09-08T13:34:13;30.10;99.80
46085;DHT22;31823;47.032;8.310;2023-09-08T13:36:38;30.30;99.20
46085;DHT22;31823;47.032;8.310;2023-09-08T13:39:04;29.90;99.90
46085;DHT22;31823;47.032;8.310;2023-09-08T13:41:46;30.10;99.90
46085;DHT22;31823;47.032;8.310;2023-09-08T13:44:12;29.90;99.10
46085;DHT22;31823;47.032;8.310;2023-09-08T13:46:38;29.30;99.90
46085;DHT22;31823;47.032;8.310;2023-09-08T13:49:03;29.10;99.40
46085;DHT22;31823;47.032;8.310;2023-09-08T13:51:29;29.20;99.90
46085;DHT22;31823;47.032;8.310;2023-09-08T13:53:55;28.60;99.90
46085;DHT22;31823;47.032;8.310;2023-09-08T13:56:20;28.40;99.90
46085;DHT22;31823;47.032;8.310;2023-09-08T13:58:46;28.70;99.90
46085;DHT22;31823;47.032;8.310;2023-09-08T14:01:11;28.30;99.90
46085;DHT22;31823;47.032;8.310;2023-09-08T14:03:37;28.00;99.90
46085;DHT22;31823;47.032;8.310;2023-09-08T14:06:03;28.00;99.90
46085;DHT22;31823;47.032;8.310;2023-09-08T14:08:28;28.10;99.90
46085;DHT22;31823;47.032;8.310;2023-09-08T14:10:54;27.90;99.90
46085;DHT22;31823;47.032;8.310;2023-09-08T14:13:20;27.60;99.90
46085;DHT22;31823;47.032;8.310;2023-09-08T14:15:45;27.40;99.90
46085;DHT22;31823;47.032;8.310;2023-09-08T14:18:11;27.60;99.90
46085;DHT22;31823;47.032;8.310;2023-09-08T14:20:37;27.60;99.90
46085;DHT22;31823;47.032;8.310;2023-09-08T14:23:02;27.50;99.90
46085;DHT22;31823;47.032;8.310;2023-09-08T14:25:28;26.90;99.90
46085;DHT22;31823;47.032;8.310;2023-09-08T14:27:53;26.80;99.90
46085;DHT22;31823;47.032;8.310;2023-09-08T14:30:19;27.00;99.90
46085;DHT22;31823;47.032;8.310;2023-09-08T14:32:44;27.90;99.90
46085;DHT22;31823;47.032;8.310;2023-09-08T14:35:10;28.20;99.90
46085;DHT22;31823;47.032;8.310;2023-09-08T14:37:36;27.50;99.90
46085;DHT22;31823;47.032;8.310;2023-09-08T14:40:01;27.50;99.90
46085;DHT22;31823;47.032;8.310;2023-09-08T14:42:28;27.50;99.90
46085;DHT22;31823;47.032;8.310;2023-09-08T14:44:54;27.20;99.90
46085;DHT22;31823;47.032;8.310;2023-09-08T14:47:20;27.50;99.90
46085;DHT22;31823;47.032;8.310;2023-09-08T14:49:46;27.10;99.90
46085;DHT22;31823;47.032;8.310;2023-09-08T14:52:11;27.00;99.90
46085;DHT22;31823;47.032;8.310;2023-09-08T14:54:37;26.80;99.90
46085;DHT22;31823;47.032;8.310;2023-09-08T14:57:03;27.10;99.90
46085;DHT22;31823;47.032;8.310;2023-09-08T14:59:28;27.20;99.90
46085;DHT22;31823;47.032;8.310;2023-09-08T15:01:54;27.20;99.90
46085;DHT22;31823;47.032;8.310;2023-09-08T15:04:20;27.60;99.90
46085;DHT22;31823;47.032;8.310;2023-09-08T15:06:45;27.90;99.90
46085;DHT22;31823;47.032;8.310;2023-09-08T15:09:11;28.10;99.90
46085;DHT22;31823;47.032;8.310;2023-09-08T15:11:37;28.30;99.90
46085;DHT22;31823;47.032;8.310;2023-09-08T15:14:03;27.60;99.90
46085;DHT22;31823;47.032;8.310;2023-09-08T15:16:29;27.20;99.90
46085;DHT22;31823;47.032;8.310;2023-09-08T15:18:55;27.20;99.90
46085;DHT22;31823;47.032;8.310;2023-09-08T15:21:20;27.50;99.90
46085;DHT22;31823;47.032;8.310;2023-09-08T15:23:51;27.70;99.90
46085;DHT22;31823;47.032;8.310;2023-09-08T15:26:17;28.20;99.90
46085;DHT22;31823;47.032;8.310;2023-09-08T15:28:43;27.80;99.90
46085;DHT22;31823;47.032;8.310;2023-09-08T15:31:08;27.60;99.90
46085;DHT22;31823;47.032;8.310;2023-09-08T15:33:37;27.50;99.90
46085;DHT22;31823;47.032;8.310;2023-09-08T15:36:03;27.20;99.90
46085;DHT22;31823;47.032;8.310;2023-09-08T15:38:28;27.10;99.90
46085;DHT22;31823;47.032;8.310;2023-09-08T15:43:43;27.20;99.90